sensor_id;sensor_type;location;lat;lon;timestamp;P1;durP1;ratioP1;P2;durP2;ratioP2
71204;SDS011;58935;54.498;18.544;2024-01-06T00:02:22;17.80;;;9.80;;
71204;SDS011;58935;54.498;18.544;2024-01-06T00:04:48;26.20;;;12.80;;
71204;SDS011;58935;54.498;18.544;2024-01-06T00:07:13;19.60;;;11.00;;
71204;SDS011;58935;54.498;18.544;2024-01-06T00:09:39;26.90;;;11.90;;
71204;SDS011;58935;54.498;18.544;2024-01-06T00:12:05;20.10;;;10.80;;
71204;SDS011;58935;54.498;18.544;2024-01-06T00:14:31;21.90;;;11.20;;
71204;SDS011;58935;54.498;18.544;2024-01-06T00:16:56;17.70;;;8.40;;
71204;SDS011;58935;54.498;18.544;2024-01-06T00:19:24;22.80;;;9.60;;
71204;SDS011;58935;54.498;18.544;2024-01-06T00:21:49;16.20;;;8.70;;
71204;SDS011;58935;54.498;18.544;2024-01-06T00:24:14;26.70;;;11.40;;
71204;SDS011;58935;54.498;18.544;2024-01-06T00:26:39;20.30;;;10.90;;
71204;SDS011;58935;54.498;18.544;2024-01-06T00:29:05;21.90;;;10.10;;
71204;SDS011;58935;54.498;18.544;2024-01-06T00:31:30;18.80;;;9.40;;
71204;SDS011;58935;54.498;18.544;2024-01-06T00:33:55;28.20;;;9.90;;
71204;SDS011;58935;54.498;18.544;2024-01-06T00:36:21;20.90;;;9.40;;
71204;SDS011;58935;54.498;18.544;2024-01-06T00:38:46;16.40;;;9.40;;
71204;SDS011;58935;54.498;18.544;2024-01-06T00:41:11;22.10;;;9.50;;
71204;SDS011;58935;54.498;18.544;2024-01-06T00:43:37;29.30;;;10.50;;
71204;SDS011;58935;54.498;18.544;2024-01-06T00:46:02;26.50;;;10.20;;
71204;SDS011;58935;54.498;18.544;2024-01-06T00:48:28;45.10;;;14.60;;
71204;SDS011;58935;54.498;18.544;2024-01-06T00:50:55;44.60;;;13.90;;
71204;SDS011;58935;54.498;18.544;2024-01-06T00:53:21;39.80;;;14.00;;
71204;SDS011;58935;54.498;18.544;2024-01-06T00:55:47;24.50;;;10.20;;
71204;SDS011;58935;54.498;18.544;2024-01-06T00:58:12;41.30;;;13.60;;
71204;SDS011;58935;54.498;18.544;2024-01-06T01:00:38;40.40;;;14.40;;
71204;SDS011;58935;54.498;18.544;2024-01-06T01:03:06;45.60;;;17.10;;
71204;SDS011;58935;54.498;18.544;2024-01-06T01:05:31;59.40;;;17.50;;
71204;SDS011;58935;54.498;18.544;2024-01-06T01:07:56;29.90;;;12.20;;
71204;SDS011;58935;54.498;18.544;2024-01-06T01:10:22;42.30;;;12.90;;
71204;SDS011;58935;54.498;18.544;2024-01-06T01:12:47;44.80;;;15.40;;
71204;SDS011;58935;54.498;18.544;2024-01-06T01:15:12;41.20;;;14.40;;
71204;SDS011;58935;54.498;18.544;2024-01-06T01:17:38;43.80;;;16.90;;
71204;SDS011;58935;54.498;18.544;2024-01-06T01:20:03;49.50;;;18.10;;
71204;SDS011;58935;54.498;18.544;2024-01-06T01:22:29;29.50;;;14.50;;
71204;SDS011;58935;54.498;18.544;2024-01-06T01:24:55;27.70;;;13.30;;
71204;SDS011;58935;54.498;18.544;2024-01-06T01:27:20;28.40;;;11.90;;
71204;SDS011;58935;54.498;18.544;2024-01-06T01:29:45;35.70;;;15.50;;
71204;SDS011;58935;54.498;18.544;2024-01-06T01:32:11;34.70;;;14.20;;
71204;SDS011;58935;54.498;18.544;2024-01-06T01:34:36;29.60;;;13.70;;
71204;SDS011;58935;54.498;18.544;2024-01-06T01:37:01;30.30;;;16.10;;
71204;SDS011;58935;54.498;18.544;2024-01-06T01:39:29;27.10;;;13.50;;
71204;SDS011;58935;54.498;18.544;2024-01-06T01:41:57;20.70;;;11.70;;
71204;SDS011;58935;54.498;18.544;2024-01-06T01:44:22;18.90;;;9.10;;
71204;SDS011;58935;54.498;18.544;2024-01-06T01:46:48;20.30;;;10.00;;
71204;SDS011;58935;54.498;18.544;2024-01-06T01:49:14;9.10;;;5.70;;
71204;SDS011;58935;54.498;18.544;2024-01-06T01:51:41;16.10;;;6.20;;
71204;SDS011;58935;54.498;18.544;2024-01-06T01:54:09;14.80;;;7.70;;
71204;SDS011;58935;54.498;18.544;2024-01-06T01:56:36;11.80;;;7.10;;
71204;SDS011;58935;54.498;18.544;2024-01-06T01:59:11;6.80;;;4.50;;
71204;SDS011;58935;54.498;18.544;2024-01-06T02:01:39;7.70;;;5.10;;
71204;SDS011;58935;54.498;18.544;2024-01-06T02:04:06;8.60;;;4.10;;
71204;SDS011;58935;54.498;18.544;2024-01-06T02:06:31;5.80;;;3.30;;
71204;SDS011;58935;54.498;18.544;2024-01-06T02:08:57;17.30;;;8.80;;
71204;SDS011;58935;54.498;18.544;2024-01-06T02:11:22;29.10;;;12.60;;
71204;SDS011;58935;54.498;18.544;2024-01-06T02:13:48;26.30;;;12.00;;
71204;SDS011;58935;54.498;18.544;2024-01-06T02:16:13;23.20;;;10.10;;
71204;SDS011;58935;54.498;18.544;2024-01-06T02:18:39;29.00;;;11.20;;
71204;SDS011;58935;54.498;18.544;2024-01-06T02:21:06;12.90;;;6.00;;
71204;SDS011;58935;54.498;18.544;2024-01-06T02:23:34;7.10;;;4.80;;
71204;SDS011;58935;54.498;18.544;2024-01-06T02:26:01;4.40;;;2.80;;
71204;SDS011;58935;54.498;18.544;2024-01-06T02:28:27;2.70;;;2.20;;
71204;SDS011;58935;54.498;18.544;2024-01-06T02:30:52;1.80;;;1.60;;
71204;SDS011;58935;54.498;18.544;2024-01-06T02:33:18;3.10;;;1.70;;
71204;SDS011;58935;54.498;18.544;2024-01-06T02:35:45;2.40;;;1.50;;
71204;SDS011;58935;54.498;18.544;2024-01-06T02:38:11;1.50;;;1.40;;
71204;SDS011;58935;54.498;18.544;2024-01-06T02:40:37;2.50;;;1.60;;
71204;SDS011;58935;54.498;18.544;2024-01-06T02:43:03;1.60;;;1.50;;
71204;SDS011;58935;54.498;18.544;2024-01-06T02:45:28;2.30;;;1.50;;
71204;SDS011;58935;54.498;18.544;2024-01-06T02:47:53;1.60;;;1.50;;
71204;SDS011;58935;54.498;18.544;2024-01-06T02:50:19;1.60;;;1.50;;
71204;SDS011;58935;54.498;18.544;2024-01-06T02:52:46;1.40;;;1.30;;
71204;SDS011;58935;54.498;18.544;2024-01-06T02:55:16;1.60;;;1.50;;
71204;SDS011;58935;54.498;18.544;2024-01-06T02:57:44;1.50;;;1.30;;
71204;SDS011;58935;54.498;18.544;2024-01-06T03:00:09;1.30;;;1.30;;
71204;SDS011;58935;54.498;18.544;2024-01-06T03:02:35;1.50;;;1.40;;
71204;SDS011;58935;54.498;18.544;2024-01-06T03:05:02;1.70;;;1.50;;
71204;SDS011;58935;54.498;18.544;2024-01-06T03:07:28;4.30;;;1.40;;
71204;SDS011;58935;54.498;18.544;2024-01-06T03:09:58;2.20;;;1.60;;
71204;SDS011;58935;54.498;18.544;2024-01-06T03:12:23;1.70;;;1.60;;
71204;SDS011;58935;54.498;18.544;2024-01-06T03:14:49;2.00;;;1.40;;
71204;SDS011;58935;54.498;18.544;2024-01-06T03:17:14;1.10;;;1.10;;
71204;SDS011;58935;54.498;18.544;2024-01-06T03:19:39;2.50;;;1.40;;
71204;SDS011;58935;54.498;18.544;2024-01-06T03:22:07;1.60;;;1.50;;
71204;SDS011;58935;54.498;18.544;2024-01-06T03:24:32;2.40;;;1.20;;
71204;SDS011;58935;54.498;18.544;2024-01-06T03:26:57;4.90;;;2.60;;
71204;SDS011;58935;54.498;18.544;2024-01-06T03:29:23;2.60;;;1.60;;
71204;SDS011;58935;54.498;18.544;2024-01-06T03:31:48;1.70;;;1.60;;
71204;SDS011;58935;54.498;18.544;2024-01-06T03:34:14;1.90;;;1.80;;
71204;SDS011;58935;54.498;18.544;2024-01-06T03:36:40;1.40;;;1.40;;
71204;SDS011;58935;54.498;18.544;2024-01-06T03:39:06;1.70;;;1.60;;
71204;SDS011;58935;54.498;18.544;2024-01-06T03:41:35;1.90;;;1.50;;
71204;SDS011;58935;54.498;18.544;2024-01-06T03:44:00;8.00;;;1.50;;
71204;SDS011;58935;54.498;18.544;2024-01-06T03:46:25;1.70;;;1.40;;
71204;SDS011;58935;54.498;18.544;2024-01-06T03:48:53;3.40;;;2.20;;
71204;SDS011;58935;54.498;18.544;2024-01-06T03:51:18;1.80;;;1.70;;
71204;SDS011;58935;54.498;18.544;2024-01-06T03:53:46;1.50;;;1.20;;
71204;SDS011;58935;54.498;18.544;2024-01-06T03:56:16;3.10;;;1.80;;
71204;SDS011;58935;54.498;18.544;2024-01-06T03:58:44;1.40;;;1.30;;
71204;SDS011;58935;54.498;18.544;2024-01-06T04:01:11;2.10;;;1.80;;
71204;SDS011;58935;54.498;18.544;2024-01-06T04:03:39;1.70;;;1.60;;
71204;SDS011;58935;54.498;18.544;2024-01-06T04:06:06;3.90;;;1.80;;
71204;SDS011;58935;54.498;18.544;2024-01-06T04:08:39;4.30;;;2.20;;
71204;SDS011;58935;54.498;18.544;2024-01-06T04:11:06;1.80;;;1.70;;
71204;SDS011;58935;54.498;18.544;2024-01-06T04:13:31;2.30;;;2.10;;
71204;SDS011;58935;54.498;18.544;2024-01-06T04:15:56;3.60;;;2.00;;
71204;SDS011;58935;54.498;18.544;2024-01-06T04:18:22;4.40;;;1.80;;
71204;SDS011;58935;54.498;18.544;2024-01-06T04:20:47;1.80;;;1.70;;
71204;SDS011;58935;54.498;18.544;2024-01-06T04:23:12;6.60;;;1.90;;
71204;SDS011;58935;54.498;18.544;2024-01-06T04:25:38;2.60;;;2.00;;
71204;SDS011;58935;54.498;18.544;2024-01-06T04:28:03;2.90;;;2.10;;
71204;SDS011;58935;54.498;18.544;2024-01-06T04:30:29;1.50;;;1.40;;
71204;SDS011;58935;54.498;18.544;2024-01-06T04:32:54;2.10;;;1.50;;
71204;SDS011;58935;54.498;18.544;2024-01-06T04:35:20;1.40;;;1.30;;
71204;SDS011;58935;54.498;18.544;2024-01-06T04:37:46;1.70;;;1.60;;
71204;SDS011;58935;54.498;18.544;2024-01-06T04:40:13;2.00;;;1.60;;
71204;SDS011;58935;54.498;18.544;2024-01-06T04:42:39;1.50;;;1.40;;
71204;SDS011;58935;54.498;18.544;2024-01-06T04:45:04;2.30;;;1.40;;
71204;SDS011;58935;54.498;18.544;2024-01-06T04:47:30;2.00;;;1.50;;
71204;SDS011;58935;54.498;18.544;2024-01-06T04:49:56;5.00;;;1.90;;
71204;SDS011;58935;54.498;18.544;2024-01-06T04:52:22;1.50;;;1.40;;
71204;SDS011;58935;54.498;18.544;2024-01-06T04:54:52;1.70;;;1.40;;
71204;SDS011;58935;54.498;18.544;2024-01-06T04:57:18;1.40;;;1.30;;
71204;SDS011;58935;54.498;18.544;2024-01-06T04:59:45;1.80;;;1.70;;
71204;SDS011;58935;54.498;18.544;2024-01-06T05:02:11;1.90;;;1.40;;
71204;SDS011;58935;54.498;18.544;2024-01-06T05:04:36;1.60;;;1.50;;
71204;SDS011;58935;54.498;18.544;2024-01-06T05:07:03;1.80;;;1.70;;
71204;SDS011;58935;54.498;18.544;2024-01-06T05:09:29;6.20;;;2.00;;
71204;SDS011;58935;54.498;18.544;2024-01-06T05:11:54;2.30;;;1.50;;
71204;SDS011;58935;54.498;18.544;2024-01-06T05:14:20;1.90;;;1.80;;
71204;SDS011;58935;54.498;18.544;2024-01-06T05:16:45;1.90;;;1.40;;
71204;SDS011;58935;54.498;18.544;2024-01-06T05:19:11;1.70;;;1.40;;
71204;SDS011;58935;54.498;18.544;2024-01-06T05:21:36;1.90;;;1.60;;
71204;SDS011;58935;54.498;18.544;2024-01-06T05:24:02;1.30;;;1.20;;
71204;SDS011;58935;54.498;18.544;2024-01-06T05:26:28;1.60;;;1.50;;
71204;SDS011;58935;54.498;18.544;2024-01-06T05:28:54;1.20;;;1.20;;
71204;SDS011;58935;54.498;18.544;2024-01-06T05:31:19;3.60;;;1.80;;
71204;SDS011;58935;54.498;18.544;2024-01-06T05:33:47;1.60;;;1.50;;
71204;SDS011;58935;54.498;18.544;2024-01-06T05:36:12;1.50;;;1.40;;
71204;SDS011;58935;54.498;18.544;2024-01-06T05:38:37;1.60;;;1.40;;
71204;SDS011;58935;54.498;18.544;2024-01-06T05:41:03;3.40;;;1.50;;
71204;SDS011;58935;54.498;18.544;2024-01-06T05:43:28;1.50;;;1.40;;
71204;SDS011;58935;54.498;18.544;2024-01-06T05:45:53;1.80;;;1.50;;
71204;SDS011;58935;54.498;18.544;2024-01-06T05:48:19;1.40;;;1.30;;
71204;SDS011;58935;54.498;18.544;2024-01-06T05:50:44;2.50;;;1.70;;
71204;SDS011;58935;54.498;18.544;2024-01-06T05:53:10;2.40;;;1.40;;
71204;SDS011;58935;54.498;18.544;2024-01-06T05:55:36;1.70;;;1.60;;
71204;SDS011;58935;54.498;18.544;2024-01-06T05:58:03;1.60;;;1.30;;
71204;SDS011;58935;54.498;18.544;2024-01-06T06:00:29;1.60;;;1.50;;
71204;SDS011;58935;54.498;18.544;2024-01-06T06:02:58;4.70;;;2.30;;
71204;SDS011;58935;54.498;18.544;2024-01-06T06:05:26;2.40;;;2.10;;
71204;SDS011;58935;54.498;18.544;2024-01-06T06:07:53;1.30;;;1.30;;
71204;SDS011;58935;54.498;18.544;2024-01-06T06:10:19;5.90;;;2.10;;
71204;SDS011;58935;54.498;18.544;2024-01-06T06:12:47;1.70;;;1.40;;
71204;SDS011;58935;54.498;18.544;2024-01-06T06:15:13;2.30;;;1.70;;
71204;SDS011;58935;54.498;18.544;2024-01-06T06:17:39;2.60;;;2.40;;
71204;SDS011;58935;54.498;18.544;2024-01-06T06:20:05;2.40;;;1.80;;
71204;SDS011;58935;54.498;18.544;2024-01-06T06:22:32;2.40;;;2.20;;
71204;SDS011;58935;54.498;18.544;2024-01-06T06:24:58;3.50;;;2.90;;
71204;SDS011;58935;54.498;18.544;2024-01-06T06:27:27;2.30;;;2.10;;
71204;SDS011;58935;54.498;18.544;2024-01-06T06:29:54;2.50;;;2.30;;
71204;SDS011;58935;54.498;18.544;2024-01-06T06:32:21;3.20;;;2.60;;
71204;SDS011;58935;54.498;18.544;2024-01-06T06:34:46;4.10;;;3.00;;
71204;SDS011;58935;54.498;18.544;2024-01-06T06:37:12;3.00;;;2.60;;
71204;SDS011;58935;54.498;18.544;2024-01-06T06:39:37;2.50;;;2.30;;
71204;SDS011;58935;54.498;18.544;2024-01-06T06:42:05;4.00;;;2.40;;
71204;SDS011;58935;54.498;18.544;2024-01-06T06:44:31;3.10;;;2.80;;
71204;SDS011;58935;54.498;18.544;2024-01-06T06:46:56;2.70;;;2.50;;
71204;SDS011;58935;54.498;18.544;2024-01-06T06:49:22;2.10;;;2.00;;
71204;SDS011;58935;54.498;18.544;2024-01-06T06:51:48;1.60;;;1.50;;
71204;SDS011;58935;54.498;18.544;2024-01-06T06:54:15;2.20;;;1.40;;
71204;SDS011;58935;54.498;18.544;2024-01-06T06:56:42;1.40;;;1.30;;
71204;SDS011;58935;54.498;18.544;2024-01-06T06:59:07;1.90;;;1.40;;
71204;SDS011;58935;54.498;18.544;2024-01-06T07:01:33;1.40;;;1.40;;
71204;SDS011;58935;54.498;18.544;2024-01-06T07:03:59;2.40;;;1.50;;
71204;SDS011;58935;54.498;18.544;2024-01-06T07:06:24;1.60;;;1.50;;
71204;SDS011;58935;54.498;18.544;2024-01-06T07:08:49;2.00;;;1.60;;
71204;SDS011;58935;54.498;18.544;2024-01-06T07:11:15;1.50;;;1.40;;
71204;SDS011;58935;54.498;18.544;2024-01-06T07:13:43;2.40;;;2.10;;
71204;SDS011;58935;54.498;18.544;2024-01-06T07:16:11;2.00;;;1.90;;
71204;SDS011;58935;54.498;18.544;2024-01-06T07:18:37;3.10;;;1.70;;
71204;SDS011;58935;54.498;18.544;2024-01-06T07:21:05;1.90;;;1.80;;
71204;SDS011;58935;54.498;18.544;2024-01-06T07:23:32;4.60;;;2.10;;
71204;SDS011;58935;54.498;18.544;2024-01-06T07:25:58;2.10;;;1.90;;
71204;SDS011;58935;54.498;18.544;2024-01-06T07:28:24;11.40;;;5.90;;
71204;SDS011;58935;54.498;18.544;2024-01-06T07:30:49;5.70;;;4.20;;
71204;SDS011;58935;54.498;18.544;2024-01-06T07:33:17;5.20;;;3.40;;
71204;SDS011;58935;54.498;18.544;2024-01-06T07:35:42;4.30;;;3.50;;
71204;SDS011;58935;54.498;18.544;2024-01-06T07:38:09;2.20;;;2.00;;
71204;SDS011;58935;54.498;18.544;2024-01-06T07:40:38;1.60;;;1.50;;
71204;SDS011;58935;54.498;18.544;2024-01-06T07:43:04;1.80;;;1.70;;
71204;SDS011;58935;54.498;18.544;2024-01-06T07:45:30;1.80;;;1.70;;
71204;SDS011;58935;54.498;18.544;2024-01-06T07:47:57;1.60;;;1.50;;
71204;SDS011;58935;54.498;18.544;2024-01-06T07:50:23;2.50;;;1.70;;
71204;SDS011;58935;54.498;18.544;2024-01-06T07:52:49;2.60;;;2.40;;
71204;SDS011;58935;54.498;18.544;2024-01-06T07:55:14;3.50;;;1.90;;
71204;SDS011;58935;54.498;18.544;2024-01-06T07:57:39;1.70;;;1.60;;
71204;SDS011;58935;54.498;18.544;2024-01-06T08:00:05;3.70;;;1.70;;
71204;SDS011;58935;54.498;18.544;2024-01-06T08:02:33;1.60;;;1.50;;
71204;SDS011;58935;54.498;18.544;2024-01-06T08:04:59;1.60;;;1.50;;
71204;SDS011;58935;54.498;18.544;2024-01-06T08:07:24;6.90;;;2.70;;
71204;SDS011;58935;54.498;18.544;2024-01-06T08:09:49;6.10;;;2.40;;
71204;SDS011;58935;54.498;18.544;2024-01-06T08:12:15;4.10;;;2.50;;
71204;SDS011;58935;54.498;18.544;2024-01-06T08:14:41;2.80;;;1.50;;
71204;SDS011;58935;54.498;18.544;2024-01-06T08:17:06;2.60;;;1.80;;
71204;SDS011;58935;54.498;18.544;2024-01-06T08:19:31;2.70;;;1.30;;
71204;SDS011;58935;54.498;18.544;2024-01-06T08:21:58;2.00;;;1.80;;
71204;SDS011;58935;54.498;18.544;2024-01-06T08:24:23;2.60;;;1.50;;
71204;SDS011;58935;54.498;18.544;2024-01-06T08:26:50;1.90;;;1.60;;
71204;SDS011;58935;54.498;18.544;2024-01-06T08:29:16;1.40;;;1.30;;
71204;SDS011;58935;54.498;18.544;2024-01-06T08:31:44;1.30;;;1.30;;
71204;SDS011;58935;54.498;18.544;2024-01-06T08:34:12;1.40;;;1.30;;
71204;SDS011;58935;54.498;18.544;2024-01-06T08:36:37;2.70;;;1.30;;
71204;SDS011;58935;54.498;18.544;2024-01-06T08:39:03;1.30;;;1.20;;
71204;SDS011;58935;54.498;18.544;2024-01-06T08:41:29;3.80;;;2.80;;
71204;SDS011;58935;54.498;18.544;2024-01-06T08:43:54;3.30;;;2.60;;
71204;SDS011;58935;54.498;18.544;2024-01-06T08:46:20;2.60;;;1.90;;
71204;SDS011;58935;54.498;18.544;2024-01-06T08:48:45;2.60;;;2.10;;
71204;SDS011;58935;54.498;18.544;2024-01-06T08:51:10;4.80;;;1.60;;
71204;SDS011;58935;54.498;18.544;2024-01-06T08:53:36;1.60;;;1.50;;
71204;SDS011;58935;54.498;18.544;2024-01-06T08:56:01;2.10;;;1.40;;
71204;SDS011;58935;54.498;18.544;2024-01-06T08:58:27;1.20;;;1.10;;
71204;SDS011;58935;54.498;18.544;2024-01-06T09:00:52;1.40;;;1.30;;
71204;SDS011;58935;54.498;18.544;2024-01-06T09:03:18;1.50;;;1.40;;
71204;SDS011;58935;54.498;18.544;2024-01-06T09:05:52;1.40;;;1.30;;
71204;SDS011;58935;54.498;18.544;2024-01-06T09:08:18;1.60;;;1.50;;
71204;SDS011;58935;54.498;18.544;2024-01-06T09:10:43;3.20;;;1.80;;
71204;SDS011;58935;54.498;18.544;2024-01-06T09:13:13;2.20;;;2.00;;
71204;SDS011;58935;54.498;18.544;2024-01-06T09:15:39;4.10;;;1.80;;
71204;SDS011;58935;54.498;18.544;2024-01-06T09:18:04;2.00;;;1.30;;
71204;SDS011;58935;54.498;18.544;2024-01-06T09:20:29;1.40;;;1.30;;
71204;SDS011;58935;54.498;18.544;2024-01-06T09:22:55;2.60;;;1.40;;
71204;SDS011;58935;54.498;18.544;2024-01-06T09:25:20;1.40;;;1.30;;
71204;SDS011;58935;54.498;18.544;2024-01-06T09:27:49;2.80;;;1.20;;
71204;SDS011;58935;54.498;18.544;2024-01-06T09:30:18;2.10;;;1.30;;
71204;SDS011;58935;54.498;18.544;2024-01-06T09:32:44;2.00;;;1.40;;
71204;SDS011;58935;54.498;18.544;2024-01-06T09:35:09;1.70;;;1.40;;
71204;SDS011;58935;54.498;18.544;2024-01-06T09:37:40;4.30;;;1.30;;
71204;SDS011;58935;54.498;18.544;2024-01-06T09:40:09;1.50;;;1.40;;
71204;SDS011;58935;54.498;18.544;2024-01-06T09:42:38;4.50;;;1.40;;
71204;SDS011;58935;54.498;18.544;2024-01-06T09:45:04;1.50;;;1.40;;
71204;SDS011;58935;54.498;18.544;2024-01-06T09:47:33;1.40;;;1.30;;
71204;SDS011;58935;54.498;18.544;2024-01-06T09:50:01;2.50;;;1.20;;
71204;SDS011;58935;54.498;18.544;2024-01-06T09:52:32;1.30;;;1.30;;
71204;SDS011;58935;54.498;18.544;2024-01-06T09:55:02;1.30;;;1.20;;
71204;SDS011;58935;54.498;18.544;2024-01-06T09:57:31;2.80;;;1.30;;
71204;SDS011;58935;54.498;18.544;2024-01-06T09:59:58;1.00;;;1.00;;
71204;SDS011;58935;54.498;18.544;2024-01-06T10:02:24;2.40;;;1.40;;
71204;SDS011;58935;54.498;18.544;2024-01-06T10:04:52;1.10;;;1.00;;
71204;SDS011;58935;54.498;18.544;2024-01-06T10:07:17;1.30;;;1.30;;
71204;SDS011;58935;54.498;18.544;2024-01-06T10:09:42;1.40;;;1.30;;
71204;SDS011;58935;54.498;18.544;2024-01-06T10:12:08;1.80;;;1.30;;
71204;SDS011;58935;54.498;18.544;2024-01-06T10:14:37;3.00;;;1.30;;
71204;SDS011;58935;54.498;18.544;2024-01-06T10:17:06;2.10;;;1.10;;
71204;SDS011;58935;54.498;18.544;2024-01-06T10:19:34;1.20;;;1.20;;
71204;SDS011;58935;54.498;18.544;2024-01-06T10:22:00;4.90;;;1.20;;
71204;SDS011;58935;54.498;18.544;2024-01-06T10:24:27;2.30;;;1.60;;
71204;SDS011;58935;54.498;18.544;2024-01-06T10:26:53;4.70;;;1.40;;
71204;SDS011;58935;54.498;18.544;2024-01-06T10:29:18;2.00;;;1.40;;
71204;SDS011;58935;54.498;18.544;2024-01-06T10:31:45;3.30;;;1.40;;
71204;SDS011;58935;54.498;18.544;2024-01-06T10:34:11;1.30;;;1.10;;
71204;SDS011;58935;54.498;18.544;2024-01-06T10:36:36;1.50;;;1.30;;
71204;SDS011;58935;54.498;18.544;2024-01-06T10:39:03;2.20;;;1.10;;
71204;SDS011;58935;54.498;18.544;2024-01-06T10:41:28;1.70;;;1.60;;
71204;SDS011;58935;54.498;18.544;2024-01-06T10:43:59;4.40;;;1.30;;
71204;SDS011;58935;54.498;18.544;2024-01-06T10:46:26;2.80;;;1.30;;
71204;SDS011;58935;54.498;18.544;2024-01-06T10:48:55;1.10;;;1.00;;
71204;SDS011;58935;54.498;18.544;2024-01-06T10:51:23;1.20;;;1.10;;
71204;SDS011;58935;54.498;18.544;2024-01-06T10:53:50;3.00;;;1.30;;
71204;SDS011;58935;54.498;18.544;2024-01-06T10:56:19;1.80;;;1.10;;
71204;SDS011;58935;54.498;18.544;2024-01-06T10:58:47;2.30;;;1.40;;
71204;SDS011;58935;54.498;18.544;2024-01-06T11:01:20;1.20;;;1.10;;
71204;SDS011;58935;54.498;18.544;2024-01-06T11:03:48;1.00;;;1.00;;
71204;SDS011;58935;54.498;18.544;2024-01-06T11:06:17;1.60;;;1.10;;
71204;SDS011;58935;54.498;18.544;2024-01-06T11:08:52;1.00;;;1.00;;
71204;SDS011;58935;54.498;18.544;2024-01-06T11:11:25;1.40;;;1.30;;
71204;SDS011;58935;54.498;18.544;2024-01-06T11:13:51;1.00;;;1.00;;
71204;SDS011;58935;54.498;18.544;2024-01-06T11:18:53;3.50;;;1.20;;
71204;SDS011;58935;54.498;18.544;2024-01-06T11:21:21;2.60;;;1.30;;
71204;SDS011;58935;54.498;18.544;2024-01-06T11:24:04;1.30;;;1.20;;
71204;SDS011;58935;54.498;18.544;2024-01-06T11:26:39;1.00;;;0.90;;
71204;SDS011;58935;54.498;18.544;2024-01-06T11:29:05;1.50;;;1.40;;
71204;SDS011;58935;54.498;18.544;2024-01-06T11:31:33;0.90;;;0.90;;
71204;SDS011;58935;54.498;18.544;2024-01-06T11:36:36;1.00;;;1.00;;
71204;SDS011;58935;54.498;18.544;2024-01-06T11:39:04;1.30;;;1.20;;
71204;SDS011;58935;54.498;18.544;2024-01-06T11:44:05;2.90;;;1.40;;
71204;SDS011;58935;54.498;18.544;2024-01-06T11:46:30;1.60;;;1.20;;
71204;SDS011;58935;54.498;18.544;2024-01-06T11:48:56;1.50;;;1.40;;
71204;SDS011;58935;54.498;18.544;2024-01-06T11:51:21;1.20;;;1.10;;
71204;SDS011;58935;54.498;18.544;2024-01-06T11:53:47;1.70;;;1.50;;
71204;SDS011;58935;54.498;18.544;2024-01-06T11:56:12;3.60;;;1.80;;
71204;SDS011;58935;54.498;18.544;2024-01-06T11:58:41;1.50;;;1.40;;
71204;SDS011;58935;54.498;18.544;2024-01-06T12:01:07;1.30;;;1.20;;
71204;SDS011;58935;54.498;18.544;2024-01-06T12:03:32;1.50;;;1.40;;
71204;SDS011;58935;54.498;18.544;2024-01-06T12:06:01;2.70;;;1.10;;
71204;SDS011;58935;54.498;18.544;2024-01-06T12:08:28;1.20;;;1.20;;
71204;SDS011;58935;54.498;18.544;2024-01-06T12:13:29;5.70;;;1.30;;
71204;SDS011;58935;54.498;18.544;2024-01-06T12:15:55;2.90;;;1.60;;
71204;SDS011;58935;54.498;18.544;2024-01-06T12:18:22;3.30;;;2.40;;
71204;SDS011;58935;54.498;18.544;2024-01-06T12:20:48;4.20;;;2.80;;
71204;SDS011;58935;54.498;18.544;2024-01-06T12:23:25;2.30;;;1.60;;
71204;SDS011;58935;54.498;18.544;2024-01-06T12:25:55;4.20;;;2.30;;
71204;SDS011;58935;54.498;18.544;2024-01-06T12:28:21;3.60;;;1.80;;
71204;SDS011;58935;54.498;18.544;2024-01-06T12:30:48;1.50;;;1.40;;
71204;SDS011;58935;54.498;18.544;2024-01-06T12:33:18;2.10;;;1.20;;
71204;SDS011;58935;54.498;18.544;2024-01-06T12:35:43;4.50;;;1.50;;
71204;SDS011;58935;54.498;18.544;2024-01-06T12:38:11;3.10;;;1.60;;
71204;SDS011;58935;54.498;18.544;2024-01-06T12:40:38;1.30;;;1.20;;
71204;SDS011;58935;54.498;18.544;2024-01-06T12:43:04;1.30;;;1.30;;
71204;SDS011;58935;54.498;18.544;2024-01-06T12:45:30;1.30;;;1.20;;
71204;SDS011;58935;54.498;18.544;2024-01-06T12:47:56;1.60;;;1.50;;
71204;SDS011;58935;54.498;18.544;2024-01-06T12:50:21;2.40;;;2.20;;
71204;SDS011;58935;54.498;18.544;2024-01-06T12:52:47;2.90;;;2.40;;
71204;SDS011;58935;54.498;18.544;2024-01-06T12:55:14;4.50;;;3.20;;
71204;SDS011;58935;54.498;18.544;2024-01-06T12:57:42;2.60;;;2.10;;
71204;SDS011;58935;54.498;18.544;2024-01-06T13:00:10;2.00;;;1.80;;
71204;SDS011;58935;54.498;18.544;2024-01-06T13:02:37;1.10;;;1.10;;
71204;SDS011;58935;54.498;18.544;2024-01-06T13:05:03;1.00;;;1.00;;
71204;SDS011;58935;54.498;18.544;2024-01-06T13:07:29;1.30;;;1.20;;
71204;SDS011;58935;54.498;18.544;2024-01-06T13:09:55;2.10;;;1.50;;
71204;SDS011;58935;54.498;18.544;2024-01-06T13:12:21;1.60;;;1.50;;
71204;SDS011;58935;54.498;18.544;2024-01-06T13:14:48;1.40;;;1.10;;
71204;SDS011;58935;54.498;18.544;2024-01-06T13:17:14;1.60;;;1.50;;
71204;SDS011;58935;54.498;18.544;2024-01-06T13:19:42;1.10;;;1.10;;
71204;SDS011;58935;54.498;18.544;2024-01-06T13:22:07;1.60;;;1.50;;
71204;SDS011;58935;54.498;18.544;2024-01-06T13:24:33;1.90;;;1.80;;
71204;SDS011;58935;54.498;18.544;2024-01-06T13:26:58;1.60;;;1.50;;
71204;SDS011;58935;54.498;18.544;2024-01-06T13:29:24;1.00;;;1.00;;
71204;SDS011;58935;54.498;18.544;2024-01-06T13:31:50;1.50;;;1.40;;
71204;SDS011;58935;54.498;18.544;2024-01-06T13:34:17;2.90;;;1.90;;
71204;SDS011;58935;54.498;18.544;2024-01-06T13:36:45;3.40;;;2.00;;
71204;SDS011;58935;54.498;18.544;2024-01-06T13:39:12;1.50;;;1.40;;
71204;SDS011;58935;54.498;18.544;2024-01-06T13:41:46;1.10;;;1.10;;
71204;SDS011;58935;54.498;18.544;2024-01-06T13:44:13;2.70;;;2.00;;
71204;SDS011;58935;54.498;18.544;2024-01-06T13:46:39;1.90;;;1.40;;
71204;SDS011;58935;54.498;18.544;2024-01-06T13:49:10;1.50;;;1.30;;
71204;SDS011;58935;54.498;18.544;2024-01-06T13:51:38;1.40;;;1.30;;
71204;SDS011;58935;54.498;18.544;2024-01-06T13:54:04;2.10;;;1.50;;
71204;SDS011;58935;54.498;18.544;2024-01-06T13:56:30;1.60;;;1.50;;
71204;SDS011;58935;54.498;18.544;2024-01-06T13:58:58;1.50;;;1.40;;
71204;SDS011;58935;54.498;18.544;2024-01-06T14:01:25;1.30;;;1.20;;
71204;SDS011;58935;54.498;18.544;2024-01-06T14:03:51;3.60;;;1.30;;
71204;SDS011;58935;54.498;18.544;2024-01-06T14:06:24;1.80;;;1.40;;
71204;SDS011;58935;54.498;18.544;2024-01-06T14:08:51;1.80;;;1.70;;
71204;SDS011;58935;54.498;18.544;2024-01-06T14:11:18;1.40;;;1.20;;
71204;SDS011;58935;54.498;18.544;2024-01-06T14:13:44;1.40;;;1.30;;
71204;SDS011;58935;54.498;18.544;2024-01-06T14:16:14;2.50;;;1.50;;
71204;SDS011;58935;54.498;18.544;2024-01-06T14:18:39;2.60;;;2.00;;
71204;SDS011;58935;54.498;18.544;2024-01-06T14:21:04;2.00;;;1.30;;
71204;SDS011;58935;54.498;18.544;2024-01-06T14:23:30;1.50;;;1.40;;
71204;SDS011;58935;54.498;18.544;2024-01-06T14:26:00;3.40;;;1.70;;
71204;SDS011;58935;54.498;18.544;2024-01-06T14:28:25;2.40;;;1.70;;
71204;SDS011;58935;54.498;18.544;2024-01-06T14:30:51;4.10;;;1.40;;
71204;SDS011;58935;54.498;18.544;2024-01-06T14:33:16;2.00;;;1.20;;
71204;SDS011;58935;54.498;18.544;2024-01-06T14:35:44;1.40;;;1.30;;
71204;SDS011;58935;54.498;18.544;2024-01-06T14:38:11;3.90;;;1.60;;